sensor_id;sensor_type;location;lat;lon;timestamp;P1;durP1;ratioP1;P2;durP2;ratioP2
19566;SDS011;9930;49.240;8.548;2024-02-14T00:01:48;3.20;;;2.90;;
19566;SDS011;9930;49.240;8.548;2024-02-14T00:04:15;3.35;;;2.95;;
19566;SDS011;9930;49.240;8.548;2024-02-14T00:06:41;3.28;;;2.97;;
19566;SDS011;9930;49.240;8.548;2024-02-14T00:09:08;3.83;;;3.17;;
19566;SDS011;9930;49.240;8.548;2024-02-14T00:11:34;3.65;;;3.05;;
19566;SDS011;9930;49.240;8.548;2024-02-14T00:14:00;3.47;;;3.17;;
19566;SDS011;9930;49.240;8.548;2024-02-14T00:16:27;3.67;;;3.38;;
19566;SDS011;9930;49.240;8.548;2024-02-14T00:18:55;5.38;;;4.00;;
19566;SDS011;9930;49.240;8.548;2024-02-14T00:21:22;5.20;;;4.70;;
19566;SDS011;9930;49.240;8.548;2024-02-14T00:23:49;5.20;;;4.57;;
19566;SDS011;9930;49.240;8.548;2024-02-14T00:26:16;6.15;;;5.40;;
19566;SDS011;9930;49.240;8.548;2024-02-14T00:28:41;7.68;;;5.18;;
19566;SDS011;9930;49.240;8.548;2024-02-14T00:31:07;7.50;;;5.95;;
19566;SDS011;9930;49.240;8.548;2024-02-14T00:33:33;6.47;;;5.82;;
19566;SDS011;9930;49.240;8.548;2024-02-14T00:35:59;6.70;;;6.00;;
19566;SDS011;9930;49.240;8.548;2024-02-14T00:38:24;7.93;;;7.10;;
19566;SDS011;9930;49.240;8.548;2024-02-14T00:40:50;7.78;;;6.97;;
19566;SDS011;9930;49.240;8.548;2024-02-14T00:43:16;8.35;;;6.75;;
19566;SDS011;9930;49.240;8.548;2024-02-14T00:45:41;7.78;;;6.05;;
19566;SDS011;9930;49.240;8.548;2024-02-14T00:48:07;7.28;;;6.28;;
19566;SDS011;9930;49.240;8.548;2024-02-14T00:50:33;7.35;;;5.82;;
19566;SDS011;9930;49.240;8.548;2024-02-14T00:52:59;6.13;;;5.53;;
19566;SDS011;9930;49.240;8.548;2024-02-14T00:55:25;5.07;;;4.57;;
19566;SDS011;9930;49.240;8.548;2024-02-14T00:57:51;4.72;;;4.32;;
19566;SDS011;9930;49.240;8.548;2024-02-14T01:00:17;4.28;;;3.88;;
19566;SDS011;9930;49.240;8.548;2024-02-14T01:02:43;6.82;;;4.07;;
19566;SDS011;9930;49.240;8.548;2024-02-14T01:05:09;5.25;;;3.90;;
19566;SDS011;9930;49.240;8.548;2024-02-14T01:07:35;3.50;;;3.15;;
19566;SDS011;9930;49.240;8.548;2024-02-14T01:10:01;4.57;;;3.22;;
19566;SDS011;9930;49.240;8.548;2024-02-14T01:12:28;3.85;;;3.28;;
19566;SDS011;9930;49.240;8.548;2024-02-14T01:14:54;3.40;;;3.10;;
19566;SDS011;9930;49.240;8.548;2024-02-14T01:17:20;3.35;;;3.05;;
19566;SDS011;9930;49.240;8.548;2024-02-14T01:19:46;3.70;;;3.30;;
19566;SDS011;9930;49.240;8.548;2024-02-14T01:22:12;3.88;;;3.13;;
19566;SDS011;9930;49.240;8.548;2024-02-14T01:24:41;3.40;;;2.88;;
19566;SDS011;9930;49.240;8.548;2024-02-14T01:27:10;3.30;;;3.00;;
19566;SDS011;9930;49.240;8.548;2024-02-14T01:29:36;3.25;;;2.90;;
19566;SDS011;9930;49.240;8.548;2024-02-14T01:32:01;3.53;;;2.95;;
19566;SDS011;9930;49.240;8.548;2024-02-14T01:34:29;3.15;;;2.63;;
19566;SDS011;9930;49.240;8.548;2024-02-14T01:36:55;3.08;;;2.60;;
19566;SDS011;9930;49.240;8.548;2024-02-14T01:39:20;3.30;;;3.00;;
19566;SDS011;9930;49.240;8.548;2024-02-14T01:41:47;3.70;;;2.78;;
19566;SDS011;9930;49.240;8.548;2024-02-14T01:44:14;3.45;;;2.95;;
19566;SDS011;9930;49.240;8.548;2024-02-14T01:46:42;2.95;;;2.65;;
19566;SDS011;9930;49.240;8.548;2024-02-14T01:49:11;3.22;;;2.92;;
19566;SDS011;9930;49.240;8.548;2024-02-14T01:51:38;4.28;;;3.10;;
19566;SDS011;9930;49.240;8.548;2024-02-14T01:54:07;3.33;;;2.80;;
19566;SDS011;9930;49.240;8.548;2024-02-14T01:56:34;3.38;;;2.85;;
19566;SDS011;9930;49.240;8.548;2024-02-14T01:59:00;3.30;;;2.65;;
19566;SDS011;9930;49.240;8.548;2024-02-14T02:01:26;4.35;;;3.13;;
19566;SDS011;9930;49.240;8.548;2024-02-14T02:03:52;2.95;;;2.75;;
19566;SDS011;9930;49.240;8.548;2024-02-14T02:06:19;3.13;;;2.75;;
19566;SDS011;9930;49.240;8.548;2024-02-14T02:08:44;3.20;;;2.90;;
19566;SDS011;9930;49.240;8.548;2024-02-14T02:11:10;3.08;;;2.83;;
19566;SDS011;9930;49.240;8.548;2024-02-14T02:13:36;3.47;;;2.67;;
19566;SDS011;9930;49.240;8.548;2024-02-14T02:16:04;3.45;;;2.70;;
19566;SDS011;9930;49.240;8.548;2024-02-14T02:18:31;4.13;;;2.83;;
19566;SDS011;9930;49.240;8.548;2024-02-14T02:20:57;3.08;;;2.78;;
19566;SDS011;9930;49.240;8.548;2024-02-14T02:23:23;3.40;;;3.10;;
19566;SDS011;9930;49.240;8.548;2024-02-14T02:25:49;2.63;;;2.40;;
19566;SDS011;9930;49.240;8.548;2024-02-14T02:28:15;3.35;;;2.70;;
19566;SDS011;9930;49.240;8.548;2024-02-14T02:30:41;2.78;;;2.35;;
19566;SDS011;9930;49.240;8.548;2024-02-14T02:33:07;4.07;;;2.67;;
19566;SDS011;9930;49.240;8.548;2024-02-14T02:35:34;3.53;;;2.80;;
19566;SDS011;9930;49.240;8.548;2024-02-14T02:38:00;3.67;;;2.60;;
19566;SDS011;9930;49.240;8.548;2024-02-14T02:40:26;2.88;;;2.65;;
19566;SDS011;9930;49.240;8.548;2024-02-14T02:42:54;3.17;;;2.60;;
19566;SDS011;9930;49.240;8.548;2024-02-14T02:45:20;3.45;;;2.88;;
19566;SDS011;9930;49.240;8.548;2024-02-14T02:47:46;2.72;;;2.45;;
19566;SDS011;9930;49.240;8.548;2024-02-14T02:50:12;4.43;;;2.95;;
19566;SDS011;9930;49.240;8.548;2024-02-14T02:52:38;2.80;;;2.60;;
19566;SDS011;9930;49.240;8.548;2024-02-14T02:55:06;3.65;;;3.05;;
19566;SDS011;9930;49.240;8.548;2024-02-14T02:57:32;3.10;;;2.80;;
19566;SDS011;9930;49.240;8.548;2024-02-14T03:00:01;3.25;;;2.83;;
19566;SDS011;9930;49.240;8.548;2024-02-14T03:02:33;4.28;;;3.03;;
19566;SDS011;9930;49.240;8.548;2024-02-14T03:04:59;3.85;;;2.90;;
19566;SDS011;9930;49.240;8.548;2024-02-14T03:07:25;3.10;;;2.80;;
19566;SDS011;9930;49.240;8.548;2024-02-14T03:09:51;3.00;;;2.63;;
19566;SDS011;9930;49.240;8.548;2024-02-14T03:12:17;2.97;;;2.60;;
19566;SDS011;9930;49.240;8.548;2024-02-14T03:14:43;3.00;;;2.70;;
19566;SDS011;9930;49.240;8.548;2024-02-14T03:17:09;2.67;;;2.47;;
19566;SDS011;9930;49.240;8.548;2024-02-14T03:19:35;3.15;;;2.80;;
19566;SDS011;9930;49.240;8.548;2024-02-14T03:22:04;3.33;;;2.58;;
19566;SDS011;9930;49.240;8.548;2024-02-14T03:24:34;3.00;;;2.30;;
19566;SDS011;9930;49.240;8.548;2024-02-14T03:27:02;4.00;;;3.10;;
19566;SDS011;9930;49.240;8.548;2024-02-14T03:29:31;3.00;;;2.75;;
19566;SDS011;9930;49.240;8.548;2024-02-14T03:31:58;3.28;;;2.83;;
19566;SDS011;9930;49.240;8.548;2024-02-14T03:34:28;3.33;;;3.03;;
19566;SDS011;9930;49.240;8.548;2024-02-14T03:36:55;3.95;;;2.97;;
19566;SDS011;9930;49.240;8.548;2024-02-14T03:39:21;3.15;;;2.80;;
19566;SDS011;9930;49.240;8.548;2024-02-14T03:41:47;4.13;;;2.90;;
19566;SDS011;9930;49.240;8.548;2024-02-14T03:44:13;3.03;;;2.75;;
19566;SDS011;9930;49.240;8.548;2024-02-14T03:46:38;3.25;;;2.70;;
19566;SDS011;9930;49.240;8.548;2024-02-14T03:49:04;2.80;;;2.60;;
19566;SDS011;9930;49.240;8.548;2024-02-14T03:51:30;3.95;;;2.80;;
19566;SDS011;9930;49.240;8.548;2024-02-14T03:53:56;3.30;;;2.97;;
19566;SDS011;9930;49.240;8.548;2024-02-14T03:56:21;3.20;;;2.80;;
19566;SDS011;9930;49.240;8.548;2024-02-14T03:58:47;4.43;;;2.70;;
19566;SDS011;9930;49.240;8.548;2024-02-14T04:01:13;3.38;;;2.65;;
19566;SDS011;9930;49.240;8.548;2024-02-14T04:03:40;4.15;;;2.78;;
19566;SDS011;9930;49.240;8.548;2024-02-14T04:06:05;3.30;;;2.65;;
19566;SDS011;9930;49.240;8.548;2024-02-14T04:08:31;3.65;;;2.70;;
19566;SDS011;9930;49.240;8.548;2024-02-14T04:10:58;3.15;;;2.75;;
19566;SDS011;9930;49.240;8.548;2024-02-14T04:13:24;3.30;;;2.95;;
19566;SDS011;9930;49.240;8.548;2024-02-14T04:15:49;3.20;;;2.75;;
19566;SDS011;9930;49.240;8.548;2024-02-14T04:18:15;2.75;;;2.55;;
19566;SDS011;9930;49.240;8.548;2024-02-14T04:20:46;3.10;;;2.80;;
19566;SDS011;9930;49.240;8.548;2024-02-14T04:23:11;2.88;;;2.53;;
19566;SDS011;9930;49.240;8.548;2024-02-14T04:25:37;3.00;;;2.70;;
19566;SDS011;9930;49.240;8.548;2024-02-14T04:28:05;4.22;;;2.75;;
19566;SDS011;9930;49.240;8.548;2024-02-14T04:30:32;3.58;;;2.60;;
19566;SDS011;9930;49.240;8.548;2024-02-14T04:32:59;2.88;;;2.63;;
19566;SDS011;9930;49.240;8.548;2024-02-14T04:35:25;2.85;;;2.53;;
19566;SDS011;9930;49.240;8.548;2024-02-14T04:37:51;3.15;;;2.63;;
19566;SDS011;9930;49.240;8.548;2024-02-14T04:40:17;2.83;;;2.63;;
19566;SDS011;9930;49.240;8.548;2024-02-14T04:42:43;3.20;;;2.90;;
19566;SDS011;9930;49.240;8.548;2024-02-14T04:45:09;3.38;;;2.88;;
19566;SDS011;9930;49.240;8.548;2024-02-14T04:47:35;3.10;;;2.50;;
19566;SDS011;9930;49.240;8.548;2024-02-14T04:50:01;3.47;;;2.60;;
19566;SDS011;9930;49.240;8.548;2024-02-14T04:52:29;2.70;;;2.50;;
19566;SDS011;9930;49.240;8.548;2024-02-14T04:54:55;2.92;;;2.53;;
19566;SDS011;9930;49.240;8.548;2024-02-14T04:57:21;3.28;;;2.72;;
19566;SDS011;9930;49.240;8.548;2024-02-14T04:59:47;2.65;;;2.45;;
19566;SDS011;9930;49.240;8.548;2024-02-14T05:02:13;2.90;;;2.65;;
19566;SDS011;9930;49.240;8.548;2024-02-14T05:04:39;3.20;;;2.90;;
19566;SDS011;9930;49.240;8.548;2024-02-14T05:07:05;3.17;;;2.80;;
19566;SDS011;9930;49.240;8.548;2024-02-14T05:09:32;2.95;;;2.75;;
19566;SDS011;9930;49.240;8.548;2024-02-14T05:11:58;3.45;;;3.17;;
19566;SDS011;9930;49.240;8.548;2024-02-14T05:14:24;3.80;;;3.40;;
19566;SDS011;9930;49.240;8.548;2024-02-14T05:16:51;3.88;;;3.00;;
19566;SDS011;9930;49.240;8.548;2024-02-14T05:19:16;2.80;;;2.58;;
19566;SDS011;9930;49.240;8.548;2024-02-14T05:21:42;3.22;;;2.78;;
19566;SDS011;9930;49.240;8.548;2024-02-14T05:24:08;4.50;;;3.05;;
19566;SDS011;9930;49.240;8.548;2024-02-14T05:26:34;3.33;;;3.13;;
19566;SDS011;9930;49.240;8.548;2024-02-14T05:29:00;3.40;;;3.10;;
19566;SDS011;9930;49.240;8.548;2024-02-14T05:31:28;4.05;;;3.47;;
19566;SDS011;9930;49.240;8.548;2024-02-14T05:34:09;3.63;;;3.33;;
19566;SDS011;9930;49.240;8.548;2024-02-14T05:36:35;4.10;;;3.33;;
19566;SDS011;9930;49.240;8.548;2024-02-14T05:39:02;3.70;;;3.30;;
19566;SDS011;9930;49.240;8.548;2024-02-14T05:41:28;5.28;;;3.60;;
19566;SDS011;9930;49.240;8.548;2024-02-14T05:43:55;4.30;;;3.42;;
19566;SDS011;9930;49.240;8.548;2024-02-14T05:46:21;3.35;;;2.92;;
19566;SDS011;9930;49.240;8.548;2024-02-14T05:48:49;4.57;;;3.40;;
19566;SDS011;9930;49.240;8.548;2024-02-14T05:51:17;3.85;;;3.10;;
19566;SDS011;9930;49.240;8.548;2024-02-14T05:53:43;4.40;;;3.40;;
19566;SDS011;9930;49.240;8.548;2024-02-14T05:56:08;3.28;;;2.97;;
19566;SDS011;9930;49.240;8.548;2024-02-14T05:58:34;3.05;;;2.75;;
19566;SDS011;9930;49.240;8.548;2024-02-14T06:01:00;3.78;;;3.10;;
19566;SDS011;9930;49.240;8.548;2024-02-14T06:03:26;3.92;;;2.90;;
19566;SDS011;9930;49.240;8.548;2024-02-14T06:05:52;4.05;;;3.30;;
19566;SDS011;9930;49.240;8.548;2024-02-14T06:08:18;3.88;;;3.10;;
19566;SDS011;9930;49.240;8.548;2024-02-14T06:10:44;3.53;;;3.05;;
19566;SDS011;9930;49.240;8.548;2024-02-14T06:13:10;4.43;;;3.05;;
19566;SDS011;9930;49.240;8.548;2024-02-14T06:15:36;4.25;;;3.58;;
19566;SDS011;9930;49.240;8.548;2024-02-14T06:18:02;4.20;;;3.80;;
19566;SDS011;9930;49.240;8.548;2024-02-14T06:20:29;4.22;;;3.65;;
19566;SDS011;9930;49.240;8.548;2024-02-14T06:22:54;4.75;;;3.95;;
19566;SDS011;9930;49.240;8.548;2024-02-14T06:25:20;4.53;;;3.63;;
19566;SDS011;9930;49.240;8.548;2024-02-14T06:27:46;4.18;;;3.50;;
19566;SDS011;9930;49.240;8.548;2024-02-14T06:30:12;4.00;;;3.60;;
19566;SDS011;9930;49.240;8.548;2024-02-14T06:32:38;3.60;;;3.30;;
19566;SDS011;9930;49.240;8.548;2024-02-14T06:35:04;4.70;;;3.63;;
19566;SDS011;9930;49.240;8.548;2024-02-14T06:37:32;4.20;;;3.63;;
19566;SDS011;9930;49.240;8.548;2024-02-14T06:39:57;4.72;;;4.32;;
19566;SDS011;9930;49.240;8.548;2024-02-14T06:42:23;6.00;;;4.50;;
19566;SDS011;9930;49.240;8.548;2024-02-14T06:44:49;7.85;;;5.30;;
19566;SDS011;9930;49.240;8.548;2024-02-14T06:47:15;7.45;;;5.43;;
19566;SDS011;9930;49.240;8.548;2024-02-14T06:49:40;8.48;;;6.47;;
19566;SDS011;9930;49.240;8.548;2024-02-14T06:52:06;11.23;;;7.75;;
19566;SDS011;9930;49.240;8.548;2024-02-14T06:54:32;18.65;;;10.55;;
19566;SDS011;9930;49.240;8.548;2024-02-14T06:56:59;16.00;;;10.00;;
19566;SDS011;9930;49.240;8.548;2024-02-14T06:59:25;19.50;;;10.68;;
19566;SDS011;9930;49.240;8.548;2024-02-14T07:01:51;16.02;;;11.27;;
19566;SDS011;9930;49.240;8.548;2024-02-14T07:04:19;12.00;;;8.00;;
19566;SDS011;9930;49.240;8.548;2024-02-14T07:06:50;8.85;;;6.25;;
19566;SDS011;9930;49.240;8.548;2024-02-14T07:09:18;6.32;;;4.85;;
19566;SDS011;9930;49.240;8.548;2024-02-14T07:11:44;6.55;;;4.40;;
19566;SDS011;9930;49.240;8.548;2024-02-14T07:14:11;4.80;;;4.03;;
19566;SDS011;9930;49.240;8.548;2024-02-14T07:16:37;4.93;;;3.92;;
19566;SDS011;9930;49.240;8.548;2024-02-14T07:19:03;4.70;;;3.25;;
19566;SDS011;9930;49.240;8.548;2024-02-14T07:21:31;3.53;;;3.10;;
19566;SDS011;9930;49.240;8.548;2024-02-14T07:23:58;4.05;;;2.80;;
19566;SDS011;9930;49.240;8.548;2024-02-14T07:26:23;3.13;;;2.63;;
19566;SDS011;9930;49.240;8.548;2024-02-14T07:28:49;3.03;;;2.72;;
19566;SDS011;9930;49.240;8.548;2024-02-14T07:31:18;2.85;;;2.35;;
19566;SDS011;9930;49.240;8.548;2024-02-14T07:33:44;3.28;;;2.28;;
19566;SDS011;9930;49.240;8.548;2024-02-14T07:36:11;2.85;;;2.05;;
19566;SDS011;9930;49.240;8.548;2024-02-14T07:38:37;4.60;;;2.60;;
19566;SDS011;9930;49.240;8.548;2024-02-14T07:41:03;2.63;;;2.30;;
19566;SDS011;9930;49.240;8.548;2024-02-14T07:43:31;3.55;;;2.50;;
19566;SDS011;9930;49.240;8.548;2024-02-14T07:45:57;3.00;;;2.53;;
19566;SDS011;9930;49.240;8.548;2024-02-14T07:48:22;3.65;;;2.65;;
19566;SDS011;9930;49.240;8.548;2024-02-14T07:50:48;3.85;;;3.03;;
19566;SDS011;9930;49.240;8.548;2024-02-14T07:53:14;3.20;;;2.90;;
19566;SDS011;9930;49.240;8.548;2024-02-14T07:55:39;3.70;;;3.05;;
19566;SDS011;9930;49.240;8.548;2024-02-14T07:58:06;2.90;;;2.60;;
19566;SDS011;9930;49.240;8.548;2024-02-14T08:00:32;3.70;;;2.92;;
19566;SDS011;9930;49.240;8.548;2024-02-14T08:02:58;2.63;;;2.42;;
19566;SDS011;9930;49.240;8.548;2024-02-14T08:05:24;3.15;;;2.70;;
19566;SDS011;9930;49.240;8.548;2024-02-14T08:07:50;3.83;;;2.70;;
19566;SDS011;9930;49.240;8.548;2024-02-14T08:10:16;3.13;;;2.55;;
19566;SDS011;9930;49.240;8.548;2024-02-14T08:12:41;5.60;;;2.50;;
19566;SDS011;9930;49.240;8.548;2024-02-14T08:15:08;4.30;;;2.72;;
19566;SDS011;9930;49.240;8.548;2024-02-14T08:17:35;3.45;;;2.45;;
19566;SDS011;9930;49.240;8.548;2024-02-14T08:20:03;4.07;;;2.80;;
19566;SDS011;9930;49.240;8.548;2024-02-14T08:22:32;6.85;;;4.15;;
19566;SDS011;9930;49.240;8.548;2024-02-14T08:24:58;4.25;;;3.70;;
19566;SDS011;9930;49.240;8.548;2024-02-14T08:27:25;7.50;;;6.82;;
19566;SDS011;9930;49.240;8.548;2024-02-14T08:29:52;15.93;;;14.40;;
19566;SDS011;9930;49.240;8.548;2024-02-14T08:32:18;20.08;;;18.10;;
19566;SDS011;9930;49.240;8.548;2024-02-14T08:34:43;17.88;;;16.10;;
19566;SDS011;9930;49.240;8.548;2024-02-14T08:37:09;8.55;;;6.75;;
19566;SDS011;9930;49.240;8.548;2024-02-14T08:39:36;5.35;;;4.85;;
19566;SDS011;9930;49.240;8.548;2024-02-14T08:42:02;4.80;;;4.30;;
19566;SDS011;9930;49.240;8.548;2024-02-14T08:44:33;4.03;;;3.63;;
19566;SDS011;9930;49.240;8.548;2024-02-14T08:47:02;3.92;;;3.30;;
19566;SDS011;9930;49.240;8.548;2024-02-14T08:49:31;5.22;;;2.65;;
19566;SDS011;9930;49.240;8.548;2024-02-14T08:51:57;3.13;;;2.60;;
19566;SDS011;9930;49.240;8.548;2024-02-14T08:54:22;3.35;;;2.42;;
19566;SDS011;9930;49.240;8.548;2024-02-14T08:56:48;2.88;;;2.42;;
19566;SDS011;9930;49.240;8.548;2024-02-14T08:59:14;3.53;;;2.65;;
19566;SDS011;9930;49.240;8.548;2024-02-14T09:01:39;2.97;;;2.50;;
19566;SDS011;9930;49.240;8.548;2024-02-14T09:04:05;3.40;;;2.40;;
19566;SDS011;9930;49.240;8.548;2024-02-14T09:06:31;3.25;;;2.85;;
19566;SDS011;9930;49.240;8.548;2024-02-14T09:08:57;5.57;;;3.78;;
19566;SDS011;9930;49.240;8.548;2024-02-14T09:11:23;4.70;;;3.30;;
19566;SDS011;9930;49.240;8.548;2024-02-14T09:13:50;3.15;;;2.50;;
19566;SDS011;9930;49.240;8.548;2024-02-14T09:16:19;3.67;;;2.90;;
19566;SDS011;9930;49.240;8.548;2024-02-14T09:18:47;4.63;;;3.05;;
19566;SDS011;9930;49.240;8.548;2024-02-14T09:21:12;2.30;;;2.10;;
19566;SDS011;9930;49.240;8.548;2024-02-14T09:23:40;3.17;;;2.55;;
19566;SDS011;9930;49.240;8.548;2024-02-14T09:26:06;2.85;;;2.55;;
19566;SDS011;9930;49.240;8.548;2024-02-14T09:28:33;5.20;;;2.65;;
19566;SDS011;9930;49.240;8.548;2024-02-14T09:31:01;3.65;;;2.50;;
19566;SDS011;9930;49.240;8.548;2024-02-14T09:33:30;3.67;;;2.80;;
19566;SDS011;9930;49.240;8.548;2024-02-14T09:35:56;2.80;;;2.42;;
19566;SDS011;9930;49.240;8.548;2024-02-14T09:38:21;3.17;;;2.65;;
19566;SDS011;9930;49.240;8.548;2024-02-14T09:40:48;3.20;;;2.40;;
19566;SDS011;9930;49.240;8.548;2024-02-14T09:43:28;3.83;;;3.03;;
19566;SDS011;9930;49.240;8.548;2024-02-14T09:46:06;3.65;;;2.75;;
19566;SDS011;9930;49.240;8.548;2024-02-14T09:48:34;4.50;;;3.45;;
19566;SDS011;9930;49.240;8.548;2024-02-14T09:51:03;3.17;;;2.55;;
19566;SDS011;9930;49.240;8.548;2024-02-14T09:53:32;3.03;;;2.20;;
19566;SDS011;9930;49.240;8.548;2024-02-14T09:56:10;3.00;;;2.28;;
19566;SDS011;9930;49.240;8.548;2024-02-14T09:58:40;2.30;;;2.10;;
19566;SDS011;9930;49.240;8.548;2024-02-14T10:01:06;3.20;;;2.45;;
19566;SDS011;9930;49.240;8.548;2024-02-14T10:03:32;7.68;;;6.57;;
19566;SDS011;9930;49.240;8.548;2024-02-14T10:06:05;6.30;;;4.03;;
19566;SDS011;9930;49.240;8.548;2024-02-14T10:08:31;7.90;;;7.20;;
19566;SDS011;9930;49.240;8.548;2024-02-14T10:10:58;9.95;;;8.95;;
19566;SDS011;9930;49.240;8.548;2024-02-14T10:13:30;11.75;;;10.60;;
19566;SDS011;9930;49.240;8.548;2024-02-14T10:15:56;13.00;;;11.60;;
19566;SDS011;9930;49.240;8.548;2024-02-14T10:18:23;10.68;;;9.57;;
19566;SDS011;9930;49.240;8.548;2024-02-14T10:20:55;6.20;;;5.60;;
19566;SDS011;9930;49.240;8.548;2024-02-14T10:23:21;5.70;;;5.18;;
19566;SDS011;9930;49.240;8.548;2024-02-14T10:25:52;6.35;;;4.75;;
19566;SDS011;9930;49.240;8.548;2024-02-14T10:28:21;4.38;;;3.75;;
19566;SDS011;9930;49.240;8.548;2024-02-14T10:30:47;4.65;;;4.25;;
19566;SDS011;9930;49.240;8.548;2024-02-14T10:33:17;4.82;;;4.40;;
19566;SDS011;9930;49.240;8.548;2024-02-14T10:35:44;5.10;;;4.63;;
19566;SDS011;9930;49.240;8.548;2024-02-14T10:38:12;4.97;;;3.70;;
19566;SDS011;9930;49.240;8.548;2024-02-14T10:40:40;4.10;;;3.80;;
19566;SDS011;9930;49.240;8.548;2024-02-14T10:43:07;3.45;;;3.15;;
19566;SDS011;9930;49.240;8.548;2024-02-14T10:45:37;2.53;;;2.33;;
19566;SDS011;9930;49.240;8.548;2024-02-14T10:48:05;2.78;;;2.47;;
19566;SDS011;9930;49.240;8.548;2024-02-14T10:50:37;2.40;;;2.20;;
19566;SDS011;9930;49.240;8.548;2024-02-14T10:53:13;2.40;;;2.20;;
19566;SDS011;9930;49.240;8.548;2024-02-14T10:55:44;3.03;;;2.35;;
19566;SDS011;9930;49.240;8.548;2024-02-14T10:58:14;3.00;;;2.22;;
19566;SDS011;9930;49.240;8.548;2024-02-14T11:00:42;2.53;;;2.30;;
19566;SDS011;9930;49.240;8.548;2024-02-14T11:03:09;2.33;;;2.05;;
19566;SDS011;9930;49.240;8.548;2024-02-14T11:05:45;2.67;;;2.28;;
19566;SDS011;9930;49.240;8.548;2024-02-14T11:08:13;2.53;;;2.13;;
19566;SDS011;9930;49.240;8.548;2024-02-14T11:10:40;2.80;;;2.15;;
19566;SDS011;9930;49.240;8.548;2024-02-14T11:13:12;2.47;;;2.22;;
19566;SDS011;9930;49.240;8.548;2024-02-14T11:15:40;2.75;;;2.10;;
19566;SDS011;9930;49.240;8.548;2024-02-14T11:18:10;2.55;;;1.70;;
19566;SDS011;9930;49.240;8.548;2024-02-14T11:20:37;1.73;;;1.63;;
19566;SDS011;9930;49.240;8.548;2024-02-14T11:23:06;1.88;;;1.77;;
19566;SDS011;9930;49.240;8.548;2024-02-14T11:25:38;2.25;;;2.05;;
19566;SDS011;9930;49.240;8.548;2024-02-14T11:28:14;2.60;;;1.80;;
19566;SDS011;9930;49.240;8.548;2024-02-14T11:30:48;2.95;;;1.73;;
19566;SDS011;9930;49.240;8.548;2024-02-14T11:33:15;2.10;;;1.90;;
19566;SDS011;9930;49.240;8.548;2024-02-14T11:35:42;1.92;;;1.70;;
19566;SDS011;9930;49.240;8.548;2024-02-14T11:38:10;1.83;;;1.73;;
19566;SDS011;9930;49.240;8.548;2024-02-14T11:40:36;2.33;;;1.73;;
19566;SDS011;9930;49.240;8.548;2024-02-14T11:43:15;2.30;;;2.10;;
19566;SDS011;9930;49.240;8.548;2024-02-14T11:45:44;2.22;;;1.90;;
19566;SDS011;9930;49.240;8.548;2024-02-14T11:48:14;2.15;;;1.95;;
19566;SDS011;9930;49.240;8.548;2024-02-14T11:50:42;1.85;;;1.70;;
19566;SDS011;9930;49.240;8.548;2024-02-14T11:53:10;1.90;;;1.80;;
19566;SDS011;9930;49.240;8.548;2024-02-14T11:55:38;1.95;;;1.70;;
19566;SDS011;9930;49.240;8.548;2024-02-14T11:58:09;2.58;;;2.05;;
19566;SDS011;9930;49.240;8.548;2024-02-14T12:00:39;2.08;;;1.90;;
19566;SDS011;9930;49.240;8.548;2024-02-14T12:03:06;2.35;;;2.15;;
19566;SDS011;9930;49.240;8.548;2024-02-14T12:05:37;2.90;;;2.10;;
19566;SDS011;9930;49.240;8.548;2024-02-14T12:08:06;3.40;;;2.33;;
19566;SDS011;9930;49.240;8.548;2024-02-14T12:10:36;2.08;;;1.88;;
19566;SDS011;9930;49.240;8.548;2024-02-14T12:13:08;2.20;;;2.00;;
19566;SDS011;9930;49.240;8.548;2024-02-14T12:15:46;1.95;;;1.85;;
19566;SDS011;9930;49.240;8.548;2024-02-14T12:18:15;2.20;;;2.00;;
19566;SDS011;9930;49.240;8.548;2024-02-14T12:20:44;2.30;;;2.10;;
19566;SDS011;9930;49.240;8.548;2024-02-14T12:23:16;2.60;;;2.00;;
19566;SDS011;9930;49.240;8.548;2024-02-14T12:25:44;1.88;;;1.77;;
19566;SDS011;9930;49.240;8.548;2024-02-14T12:28:18;2.17;;;1.95;;
19566;SDS011;9930;49.240;8.548;2024-02-14T12:30:49;2.05;;;1.90;;
19566;SDS011;9930;49.240;8.548;2024-02-14T12:33:22;2.20;;;2.00;;
19566;SDS011;9930;49.240;8.548;2024-02-14T12:35:55;2.38;;;2.10;;
19566;SDS011;9930;49.240;8.548;2024-02-14T12:38:23;2.63;;;1.98;;
19566;SDS011;9930;49.240;8.548;2024-02-14T12:40:49;5.72;;;5.15;;
19566;SDS011;9930;49.240;8.548;2024-02-14T12:43:19;13.32;;;12.02;;
19566;SDS011;9930;49.240;8.548;2024-02-14T12:45:45;8.10;;;7.30;;
19566;SDS011;9930;49.240;8.548;2024-02-14T12:48:12;8.65;;;7.85;;
19566;SDS011;9930;49.240;8.548;2024-02-14T12:50:46;9.85;;;8.82;;
19566;SDS011;9930;49.240;8.548;2024-02-14T12:53:16;9.60;;;8.60;;
19566;SDS011;9930;49.240;8.548;2024-02-14T12:55:42;6.63;;;6.03;;
19566;SDS011;9930;49.240;8.548;2024-02-14T12:58:08;6.78;;;6.18;;
19566;SDS011;9930;49.240;8.548;2024-02-14T13:00:37;4.50;;;4.10;;
19566;SDS011;9930;49.240;8.548;2024-02-14T13:03:03;3.65;;;3.35;;
19566;SDS011;9930;49.240;8.548;2024-02-14T13:05:32;4.15;;;3.85;;
19566;SDS011;9930;49.240;8.548;2024-02-14T13:08:01;3.88;;;3.58;;
19566;SDS011;9930;49.240;8.548;2024-02-14T13:10:28;2.72;;;2.53;;
19566;SDS011;9930;49.240;8.548;2024-02-14T13:12:56;1.80;;;1.70;;
19566;SDS011;9930;49.240;8.548;2024-02-14T13:15:22;1.70;;;1.60;;
19566;SDS011;9930;49.240;8.548;2024-02-14T13:17:48;1.85;;;1.60;;
19566;SDS011;9930;49.240;8.548;2024-02-14T13:20:14;1.27;;;1.17;;
19566;SDS011;9930;49.240;8.548;2024-02-14T13:22:43;2.90;;;1.70;;
19566;SDS011;9930;49.240;8.548;2024-02-14T13:25:08;1.40;;;1.30;;
19566;SDS011;9930;49.240;8.548;2024-02-14T13:27:36;1.50;;;1.40;;
19566;SDS011;9930;49.240;8.548;2024-02-14T13:30:07;2.70;;;1.55;;
19566;SDS011;9930;49.240;8.548;2024-02-14T13:32:34;4.05;;;3.65;;
19566;SDS011;9930;49.240;8.548;2024-02-14T13:35:06;5.35;;;4.25;;
19566;SDS011;9930;49.240;8.548;2024-02-14T13:37:38;4.43;;;3.45;;
19566;SDS011;9930;49.240;8.548;2024-02-14T13:40:06;3.72;;;3.30;;
19566;SDS011;9930;49.240;8.548;2024-02-14T13:42:36;3.25;;;2.90;;
19566;SDS011;9930;49.240;8.548;2024-02-14T13:45:03;3.03;;;2.50;;
19566;SDS011;9930;49.240;8.548;2024-02-14T13:47:39;2.60;;;2.00;;
19566;SDS011;9930;49.240;8.548;2024-02-14T13:50:08;1.85;;;1.70;;
19566;SDS011;9930;49.240;8.548;2024-02-14T13:52:35;2.47;;;1.73;;
19566;SDS011;9930;49.240;8.548;2024-02-14T13:55:03;1.70;;;1.60;;
19566;SDS011;9930;49.240;8.548;2024-02-14T13:57:37;1.80;;;1.60;;
19566;SDS011;9930;49.240;8.548;2024-02-14T14:00:10;1.75;;;1.30;;
19566;SDS011;9930;49.240;8.548;2024-02-14T14:02:37;1.58;;;1.48;;
19566;SDS011;9930;49.240;8.548;2024-02-14T14:05:07;1.30;;;1.20;;
19566;SDS011;9930;49.240;8.548;2024-02-14T14:07:40;1.90;;;1.60;;
19566;SDS011;9930;49.240;8.548;2024-02-14T14:10:08;1.38;;;1.27;;
19566;SDS011;9930;49.240;8.548;2024-02-14T14:12:37;1.50;;;1.40;;
19566;SDS011;9930;49.240;8.548;2024-02-14T14:15:07;1.58;;;1.38;;
19566;SDS011;9930;49.240;8.548;2024-02-14T14:17:35;1.08;;;1.08;;
19566;SDS011;9930;49.240;8.548;2024-02-14T14:20:02;2.22;;;1.67;;
19566;SDS011;9930;49.240;8.548;2024-02-14T14:22:33;2.03;;;1.65;;
19566;SDS011;9930;49.240;8.548;2024-02-14T14:25:03;1.50;;;1.40;;
19566;SDS011;9930;49.240;8.548;2024-02-14T14:27:33;1.77;;;1.40;;
19566;SDS011;9930;49.240;8.548;2024-02-14T14:30:02;1.48;;;1.38;;
19566;SDS011;9930;49.240;8.548;2024-02-14T14:32:32;1.40;;;1.30;;
19566;SDS011;9930;49.240;8.548;2024-02-14T14:35:01;1.25;;;1.15;;
19566;SDS011;9930;49.240;8.548;2024-02-14T14:37:27;1.35;;;1.25;;
19566;SDS011;9930;49.240;8.548;2024-02-14T14:39:53;2.42;;;1.70;;
19566;SDS011;9930;49.240;8.548;2024-02-14T14:42:20;1.50;;;1.40;;
19566;SDS011;9930;49.240;8.548;2024-02-14T14:44:46;1.80;;;1.50;;
19566;SDS011;9930;49.240;8.548;2024-02-14T14:47:11;1.60;;;1.50;;
19566;SDS011;9930;49.240;8.548;2024-02-14T14:49:38;1.85;;;1.40;;
19566;SDS011;9930;49.240;8.548;2024-02-14T14:52:04;1.38;;;1.27;;
19566;SDS011;9930;49.240;8.548;2024-02-14T14:54:31;1.38;;;1.27;;
19566;SDS011;9930;49.240;8.548;2024-02-14T14:56:57;1.60;;;1.50;;
19566;SDS011;9930;49.240;8.548;2024-02-14T14:59:22;2.17;;;1.40;;
19566;SDS011;9930;49.240;8.548;2024-02-14T15:01:48;1.67;;;1.58;;